createdAt,value
2023-06-28T00:01:38.708Z,20.18
2023-06-28T00:04:06.300Z,20.21
2023-06-28T00:06:33.279Z,20.16
2023-06-28T00:09:00.275Z,20.10
2023-06-28T00:11:28.329Z,20.10
2023-06-28T00:13:55.176Z,20.10
2023-06-28T00:16:21.872Z,20.07
2023-06-28T00:18:48.873Z,20.10
2023-06-28T00:21:15.930Z,20.13
2023-06-28T00:23:44.006Z,20.05
2023-06-28T00:26:11.313Z,20.07
2023-06-28T00:28:38.241Z,20.06
2023-06-28T00:31:05.236Z,19.98
2023-06-28T00:33:32.828Z,19.99
2023-06-28T00:35:59.872Z,19.96
2023-06-28T00:38:27.160Z,19.79
2023-06-28T00:40:54.095Z,19.71
2023-06-28T00:43:21.017Z,19.75
2023-06-28T00:45:48.021Z,19.64
2023-06-28T00:48:15.066Z,19.39
2023-06-28T00:50:42.857Z,19.41
2023-06-28T00:53:10.120Z,19.44
2023-06-28T00:55:37.300Z,19.41
2023-06-28T00:58:05.041Z,19.28
2023-06-28T01:00:31.993Z,19.26
2023-06-28T01:02:59.333Z,19.14
2023-06-28T01:05:26.471Z,19.06
2023-06-28T01:07:53.881Z,18.97
2023-06-28T01:10:21.396Z,18.93
2023-06-28T01:12:49.483Z,18.83
2023-06-28T01:15:16.930Z,18.79
2023-06-28T01:17:43.794Z,18.82
2023-06-28T01:20:10.810Z,18.74
2023-06-28T01:22:41.656Z,18.62
2023-06-28T01:25:11.175Z,18.63
2023-06-28T01:27:41.310Z,18.69
2023-06-28T01:30:09.082Z,18.69
2023-06-28T01:32:35.893Z,18.66
2023-06-28T01:35:02.716Z,18.64
2023-06-28T01:37:29.480Z,18.58
2023-06-28T01:39:56.244Z,18.54
2023-06-28T01:42:22.918Z,18.45
2023-06-28T01:44:49.632Z,18.46
2023-06-28T01:47:16.527Z,18.41
2023-06-28T01:49:52.605Z,18.47
2023-06-28T01:52:19.357Z,18.34
2023-06-28T01:54:46.018Z,18.33
2023-06-28T01:57:13.131Z,18.25
2023-06-28T01:59:39.875Z,18.21
2023-06-28T02:02:06.619Z,18.31
2023-06-28T02:04:33.329Z,18.10
2023-06-28T02:07:00.080Z,18.06
2023-06-28T02:09:26.736Z,17.98
2023-06-28T02:11:53.455Z,17.96
2023-06-28T02:14:20.088Z,18.07
2023-06-28T02:16:46.850Z,17.98
2023-06-28T02:19:13.936Z,17.92
2023-06-28T02:21:43.381Z,17.92
2023-06-28T02:24:10.157Z,17.86
2023-06-28T02:26:36.849Z,17.66
2023-06-28T02:29:03.776Z,17.53
2023-06-28T02:31:30.752Z,17.46
2023-06-28T02:33:57.799Z,17.52
2023-06-28T02:36:24.761Z,17.47
2023-06-28T02:38:51.731Z,17.46
2023-06-28T02:41:18.883Z,17.46
2023-06-28T02:43:45.886Z,17.43
2023-06-28T02:46:12.888Z,17.47
2023-06-28T02:48:39.861Z,17.44
2023-06-28T02:51:07.323Z,17.44
2023-06-28T02:53:34.217Z,17.46
2023-06-28T02:56:01.496Z,17.52
2023-06-28T02:58:28.461Z,17.43
2023-06-28T03:00:55.485Z,17.43
2023-06-28T03:03:24.241Z,17.49
2023-06-28T03:05:51.357Z,17.47
2023-06-28T03:08:18.434Z,17.52
2023-06-28T03:10:45.529Z,17.54
2023-06-28T03:13:15.335Z,17.53
2023-06-28T03:15:42.469Z,17.54
2023-06-28T03:18:09.536Z,17.63
2023-06-28T03:20:36.541Z,17.66
2023-06-28T03:23:04.487Z,17.67
2023-06-28T03:25:31.917Z,17.74
2023-06-28T03:27:58.955Z,17.76
2023-06-28T03:30:25.930Z,17.77
2023-06-28T03:32:52.926Z,17.73
2023-06-28T03:35:20.052Z,17.74
2023-06-28T03:37:53.709Z,17.74
2023-06-28T03:40:20.964Z,17.76
2023-06-28T03:42:49.103Z,17.80
2023-06-28T03:45:16.628Z,17.87
2023-06-28T03:47:43.425Z,17.97
2023-06-28T03:50:10.569Z,17.96
2023-06-28T03:52:37.936Z,17.96
2023-06-28T03:55:05.111Z,17.92
2023-06-28T03:57:31.839Z,17.95
2023-06-28T03:59:58.434Z,17.93
2023-06-28T04:02:25.195Z,18.01
2023-06-28T04:04:51.914Z,17.86
2023-06-28T04:07:18.981Z,17.85
2023-06-28T04:09:45.912Z,17.84
2023-06-28T04:12:12.623Z,17.80
2023-06-28T04:14:39.480Z,17.85
2023-06-28T04:17:06.426Z,17.82
2023-06-28T04:19:33.248Z,17.78
2023-06-28T04:22:00.752Z,17.78
2023-06-28T04:24:27.424Z,17.73
2023-06-28T04:26:54.096Z,17.84
2023-06-28T04:29:23.003Z,17.92
2023-06-28T04:31:49.880Z,17.85
2023-06-28T04:34:18.160Z,17.87
2023-06-28T04:36:45.741Z,17.92
2023-06-28T04:39:12.392Z,17.93
2023-06-28T04:41:39.013Z,17.97
2023-06-28T04:44:11.241Z,18.00
2023-06-28T04:46:37.904Z,18.02
2023-06-28T04:49:06.715Z,18.06
2023-06-28T04:51:34.615Z,18.09
2023-06-28T04:54:01.321Z,18.07
2023-06-28T04:56:29.723Z,18.10
2023-06-28T04:58:56.756Z,18.23
2023-06-28T05:01:23.489Z,18.32
2023-06-28T05:03:50.305Z,18.26
2023-06-28T05:06:17.129Z,18.35
2023-06-28T05:08:43.838Z,18.38
2023-06-28T05:11:10.554Z,18.22
2023-06-28T05:13:37.233Z,18.20
2023-06-28T05:16:04.206Z,18.29
2023-06-28T05:18:30.822Z,18.26
2023-06-28T05:20:57.432Z,18.33
2023-06-28T05:23:25.165Z,18.41
2023-06-28T05:25:51.853Z,18.42
2023-06-28T05:28:18.620Z,18.47
2023-06-28T05:30:45.733Z,18.53
2023-06-28T05:33:12.745Z,18.54
2023-06-28T05:35:39.586Z,18.52
2023-06-28T05:38:07.760Z,18.53
2023-06-28T05:40:34.895Z,18.52
2023-06-28T05:43:02.085Z,18.57
2023-06-28T05:45:29.931Z,18.57
2023-06-28T05:47:57.474Z,18.55
2023-06-28T05:50:24.651Z,18.52
2023-06-28T05:52:51.709Z,18.48
2023-06-28T05:55:18.540Z,18.52
2023-06-28T05:57:47.936Z,18.54
2023-06-28T06:00:15.342Z,18.55
2023-06-28T06:02:42.177Z,18.54
2023-06-28T06:05:09.452Z,18.53
2023-06-28T06:07:41.258Z,18.53
2023-06-28T06:10:10.534Z,18.53
2023-06-28T06:12:38.284Z,18.50
2023-06-28T06:15:06.517Z,18.56
2023-06-28T06:17:33.349Z,18.57
2023-06-28T06:20:01.396Z,18.60
2023-06-28T06:22:28.109Z,18.56
2023-06-28T06:24:54.937Z,18.61
2023-06-28T06:27:21.549Z,18.64
2023-06-28T06:29:48.308Z,18.63
2023-06-28T06:32:15.008Z,18.64
2023-06-28T06:34:41.676Z,18.66
2023-06-28T06:37:13.381Z,18.70
2023-06-28T06:39:41.284Z,18.76
2023-06-28T06:42:08.288Z,18.78
2023-06-28T06:44:34.979Z,18.78
2023-06-28T06:47:02.721Z,18.87
2023-06-28T06:49:29.590Z,18.85
2023-06-28T06:51:56.423Z,18.81
2023-06-28T06:54:23.277Z,18.86
2023-06-28T06:56:49.985Z,18.87
2023-06-28T06:59:17.841Z,18.94
2023-06-28T07:01:44.577Z,18.98
2023-06-28T07:04:11.481Z,18.95
2023-06-28T07:06:38.457Z,19.03
2023-06-28T07:09:05.225Z,19.09
2023-06-28T07:11:31.945Z,19.12
2023-06-28T07:13:58.632Z,19.11
2023-06-28T07:16:25.315Z,19.17
2023-06-28T07:18:55.099Z,19.15
2023-06-28T07:21:22.580Z,19.16
2023-06-28T07:23:49.553Z,19.31
2023-06-28T07:26:19.404Z,19.37
2023-06-28T07:28:46.089Z,19.44
2023-06-28T07:31:12.820Z,19.71
2023-06-28T07:33:41.434Z,19.63
2023-06-28T07:36:08.316Z,19.69
2023-06-28T07:38:35.175Z,19.74
2023-06-28T07:41:01.761Z,19.75
2023-06-28T07:43:28.396Z,20.01
2023-06-28T07:46:00.185Z,20.12
2023-06-28T07:48:27.651Z,20.08
2023-06-28T07:50:54.757Z,20.25
2023-06-28T07:53:21.620Z,20.38
2023-06-28T07:55:48.368Z,20.45
2023-06-28T07:58:15.039Z,20.33
2023-06-28T08:00:41.773Z,20.52
2023-06-28T08:03:09.952Z,20.57
2023-06-28T08:05:36.708Z,20.20
2023-06-28T08:08:03.567Z,20.45
2023-06-28T08:10:30.309Z,20.67
2023-06-28T08:12:57.532Z,21.01
2023-06-28T08:15:24.576Z,21.35
2023-06-28T08:17:51.393Z,21.26
2023-06-28T08:20:18.316Z,21.43
2023-06-28T08:22:45.030Z,21.61
2023-06-28T08:25:11.707Z,21.74
2023-06-28T08:27:38.487Z,21.89
2023-06-28T08:30:05.850Z,21.91
2023-06-28T08:32:33.868Z,22.20
2023-06-28T08:35:00.886Z,21.87
2023-06-28T08:37:27.635Z,21.99
2023-06-28T08:39:54.327Z,21.95
2023-06-28T08:42:21.007Z,21.67
2023-06-28T08:44:51.070Z,21.97
2023-06-28T08:47:17.710Z,22.32
2023-06-28T08:49:44.459Z,22.52
2023-06-28T08:52:11.500Z,22.84
2023-06-28T08:54:38.569Z,22.37
2023-06-28T08:57:12.636Z,22.80
2023-06-28T08:59:40.473Z,22.71
2023-06-28T09:02:10.161Z,22.77
2023-06-28T09:04:37.040Z,23.56
2023-06-28T09:07:04.172Z,23.13
2023-06-28T09:09:31.655Z,22.74
2023-06-28T09:11:58.381Z,23.21
2023-06-28T09:14:25.171Z,22.96
2023-06-28T09:16:51.892Z,23.11
2023-06-28T09:19:18.623Z,23.43
2023-06-28T09:21:46.839Z,23.53
2023-06-28T09:24:14.338Z,24.10
2023-06-28T09:26:45.026Z,23.93
2023-06-28T09:29:13.294Z,24.20
2023-06-28T09:31:42.117Z,24.61
2023-06-28T09:34:09.468Z,24.67
2023-06-28T09:36:38.449Z,24.59
2023-06-28T09:39:06.308Z,24.40
2023-06-28T09:41:40.684Z,24.68
2023-06-28T09:44:11.813Z,23.73
2023-06-28T09:46:50.882Z,24.29
2023-06-28T09:49:22.101Z,24.76
2023-06-28T09:52:07.281Z,24.86
2023-06-28T09:54:46.454Z,24.87
2023-06-28T09:57:13.653Z,25.40
2023-06-28T09:59:40.822Z,24.93
2023-06-28T10:02:09.475Z,25.55
2023-06-28T10:04:38.328Z,25.25
2023-06-28T10:07:06.544Z,25.75
2023-06-28T10:09:35.600Z,25.17
2023-06-28T10:12:16.188Z,25.61
2023-06-28T10:14:46.824Z,25.64
2023-06-28T10:17:13.818Z,25.51
2023-06-28T10:19:40.591Z,25.67
2023-06-28T10:22:07.661Z,25.01
2023-06-28T10:24:37.015Z,25.54
2023-06-28T10:27:04.360Z,27.00
2023-06-28T10:29:32.799Z,27.44
2023-06-28T10:32:00.045Z,26.59
2023-06-28T10:34:27.508Z,25.68
2023-06-28T10:36:54.304Z,26.18
2023-06-28T10:39:21.071Z,25.93
2023-06-28T10:41:47.761Z,25.38
2023-06-28T10:44:14.459Z,25.36
2023-06-28T10:46:41.362Z,25.36
2023-06-28T10:49:08.475Z,25.90
2023-06-28T10:51:37.517Z,25.96
2023-06-28T10:54:13.995Z,25.95
2023-06-28T10:56:51.369Z,26.41
2023-06-28T10:59:18.851Z,27.32
2023-06-28T11:01:53.608Z,26.87
2023-06-28T11:04:24.328Z,26.75
2023-06-28T11:07:22.096Z,26.42
2023-06-28T11:10:15.613Z,25.95
2023-06-28T11:12:42.632Z,26.11
2023-06-28T11:15:14.269Z,26.88
2023-06-28T11:17:41.211Z,25.93
2023-06-28T11:20:09.164Z,26.59
2023-06-28T11:22:52.564Z,26.06
2023-06-28T11:25:28.945Z,25.90
2023-06-28T11:27:58.699Z,25.89
2023-06-28T11:30:47.828Z,25.76
2023-06-28T11:33:14.517Z,26.87
2023-06-28T11:35:42.051Z,26.98
2023-06-28T11:38:08.946Z,27.37
2023-06-28T11:40:35.619Z,26.79
2023-06-28T11:43:02.217Z,26.88
2023-06-28T11:45:29.360Z,27.83
2023-06-28T11:47:56.013Z,27.52
2023-06-28T11:50:23.188Z,27.05
2023-06-28T11:52:51.411Z,27.41
2023-06-28T11:55:18.181Z,27.27
2023-06-28T11:57:46.453Z,27.58
2023-06-28T12:00:18.749Z,28.63
2023-06-28T12:02:53.179Z,27.94
2023-06-28T12:05:22.924Z,28.07
2023-06-28T12:07:49.709Z,28.26
2023-06-28T12:10:18.162Z,28.53
2023-06-28T12:12:45.324Z,28.98
2023-06-28T12:15:15.523Z,28.45
2023-06-28T12:17:43.806Z,28.65
2023-06-28T12:20:11.618Z,28.19
2023-06-28T12:22:47.597Z,28.26
2023-06-28T12:25:14.414Z,28.68
2023-06-28T12:27:41.533Z,28.64
2023-06-28T12:30:16.262Z,28.53
2023-06-28T12:32:45.498Z,28.47
2023-06-28T12:35:25.904Z,28.84
2023-06-28T12:37:58.927Z,28.03
2023-06-28T12:40:33.892Z,28.08
2023-06-28T12:43:13.964Z,28.03
2023-06-28T12:45:50.022Z,27.38
2023-06-28T12:48:18.461Z,27.71
2023-06-28T12:50:47.110Z,30.15
2023-06-28T12:53:14.303Z,29.85
2023-06-28T12:55:41.561Z,29.98
2023-06-28T12:58:09.708Z,28.85
2023-06-28T13:00:44.432Z,28.21
2023-06-28T13:03:14.268Z,29.16
2023-06-28T13:05:42.485Z,28.52
2023-06-28T13:08:10.954Z,27.63
2023-06-28T13:10:37.696Z,28.46
2023-06-28T13:13:04.815Z,29.11
2023-06-28T13:15:31.630Z,27.83
2023-06-28T13:17:58.581Z,27.90
2023-06-28T13:20:25.276Z,27.23
2023-06-28T13:22:51.921Z,29.55
2023-06-28T13:25:21.246Z,27.93
2023-06-28T13:27:48.921Z,28.64
2023-06-28T13:30:15.647Z,30.12
2023-06-28T13:32:42.431Z,28.90
2023-06-28T13:35:09.620Z,28.94
2023-06-28T13:37:36.307Z,28.85
2023-06-28T13:40:03.770Z,30.35
2023-06-28T13:42:30.454Z,29.22
2023-06-28T13:44:57.180Z,30.23
2023-06-28T13:47:24.036Z,30.42
2023-06-28T13:49:50.768Z,29.69
2023-06-28T13:52:19.717Z,29.01
2023-06-28T13:54:46.468Z,29.40
2023-06-28T13:57:13.090Z,29.76
2023-06-28T13:59:39.702Z,29.07
2023-06-28T14:02:06.578Z,29.56
2023-06-28T14:04:33.260Z,28.99
2023-06-28T14:07:00.047Z,28.57
2023-06-28T14:09:27.624Z,29.36
2023-06-28T14:11:54.348Z,29.84
2023-06-28T14:14:21.157Z,28.28
2023-06-28T14:16:47.828Z,29.70
2023-06-28T14:19:14.480Z,30.35
2023-06-28T14:21:41.099Z,29.26
2023-06-28T14:24:08.086Z,30.78
2023-06-28T14:26:34.754Z,31.52
2023-06-28T14:29:04.298Z,29.35
2023-06-28T14:31:31.078Z,29.57
2023-06-28T14:33:57.705Z,27.65
2023-06-28T14:36:24.817Z,28.42
2023-06-28T14:38:51.562Z,29.49
2023-06-28T14:41:18.309Z,29.92
2023-06-28T14:43:44.961Z,30.10
2023-06-28T14:46:11.928Z,30.21
2023-06-28T14:48:38.572Z,28.38
2023-06-28T14:51:05.293Z,28.11
2023-06-28T14:53:31.941Z,28.49
2023-06-28T14:55:59.430Z,28.59
2023-06-28T14:58:26.070Z,28.50
2023-06-28T15:00:52.732Z,29.75
2023-06-28T15:03:19.928Z,29.26
2023-06-28T15:05:46.712Z,29.07
2023-06-28T15:08:13.524Z,28.50
2023-06-28T15:10:40.186Z,28.51
2023-06-28T15:13:06.907Z,28.33
2023-06-28T15:15:34.521Z,27.55
2023-06-28T15:18:01.836Z,27.53
2023-06-28T15:20:39.515Z,28.40
2023-06-28T15:23:08.345Z,28.54
2023-06-28T15:25:35.310Z,28.90
2023-06-28T15:28:02.069Z,29.57
2023-06-28T15:30:28.802Z,30.01
2023-06-28T15:32:55.643Z,29.60
2023-06-28T15:35:22.363Z,29.16
2023-06-28T15:37:49.282Z,28.69
2023-06-28T15:40:16.697Z,29.03
2023-06-28T15:42:43.569Z,29.62
2023-06-28T15:45:10.818Z,29.06
2023-06-28T15:47:37.795Z,29.86
2023-06-28T15:50:04.904Z,30.06
2023-06-28T15:52:31.563Z,30.24
2023-06-28T15:55:01.740Z,29.73
2023-06-28T15:57:28.466Z,30.66
2023-06-28T15:59:55.416Z,29.81
2023-06-28T16:02:22.774Z,30.27
2023-06-28T16:04:49.573Z,29.21
2023-06-28T16:07:16.980Z,29.77
2023-06-28T16:09:43.811Z,30.18
2023-06-28T16:12:10.584Z,30.62
2023-06-28T16:14:38.121Z,30.96
2023-06-28T16:17:05.695Z,30.67
2023-06-28T16:19:32.704Z,29.48
2023-06-28T16:21:59.456Z,31.05
2023-06-28T16:24:26.102Z,31.37
2023-06-28T16:26:52.881Z,30.43
2023-06-28T16:29:19.587Z,30.51
2023-06-28T16:31:46.292Z,30.33
2023-06-28T16:34:13.023Z,30.88
2023-06-28T16:36:42.461Z,29.38
2023-06-28T16:39:09.566Z,30.36
2023-06-28T16:41:36.515Z,31.27
2023-06-28T16:44:03.385Z,30.45
2023-06-28T16:46:30.066Z,31.15
2023-06-28T16:48:56.799Z,30.56
2023-06-28T16:51:23.633Z,30.48
2023-06-28T16:53:50.308Z,30.28
2023-06-28T16:56:17.097Z,30.35
2023-06-28T16:58:43.822Z,29.93
2023-06-28T17:01:10.712Z,31.15
2023-06-28T17:03:42.232Z,31.01
2023-06-28T17:06:09.872Z,31.13
2023-06-28T17:08:36.559Z,30.50
2023-06-28T17:11:04.609Z,28.75
2023-06-28T17:13:31.894Z,27.81
2023-06-28T17:16:01.990Z,28.21
2023-06-28T17:18:28.663Z,28.84
2023-06-28T17:20:57.107Z,28.08
2023-06-28T17:23:24.376Z,28.19
2023-06-28T17:25:51.145Z,28.08
2023-06-28T17:28:22.239Z,28.68
2023-06-28T17:30:49.870Z,27.71
2023-06-28T17:33:16.622Z,27.83
2023-06-28T17:35:43.442Z,27.90
2023-06-28T17:38:10.170Z,27.94
2023-06-28T17:40:36.785Z,27.95
2023-06-28T17:43:03.484Z,27.63
2023-06-28T17:45:30.155Z,27.37
2023-06-28T17:47:56.851Z,27.41
2023-06-28T17:50:23.808Z,27.51
2023-06-28T17:52:50.935Z,27.76
2023-06-28T17:55:17.539Z,27.32
2023-06-28T17:57:44.224Z,27.33
2023-06-28T18:00:11.552Z,26.96
2023-06-28T18:02:38.289Z,26.60
2023-06-28T18:05:05.122Z,27.07
2023-06-28T18:07:33.812Z,27.41
2023-06-28T18:10:00.614Z,27.62
2023-06-28T18:12:27.781Z,27.69
2023-06-28T18:14:54.384Z,27.43
2023-06-28T18:17:20.992Z,27.85
2023-06-28T18:19:47.660Z,27.46
2023-06-28T18:22:14.368Z,27.37
2023-06-28T18:24:40.964Z,27.26
2023-06-28T18:27:07.860Z,27.15
2023-06-28T18:29:34.694Z,26.58
2023-06-28T18:32:01.420Z,27.35
2023-06-28T18:34:28.277Z,27.19
2023-06-28T18:36:56.361Z,26.30
2023-06-28T18:39:23.051Z,26.79
2023-06-28T18:41:49.788Z,27.20
2023-06-28T18:44:16.485Z,27.34
2023-06-28T18:46:43.284Z,27.37
2023-06-28T18:49:11.581Z,27.45
2023-06-28T18:51:38.265Z,27.49
2023-06-28T18:54:06.324Z,27.35
2023-06-28T18:56:33.030Z,27.21
2023-06-28T18:59:01.023Z,27.11
2023-06-28T19:01:28.037Z,26.95
2023-06-28T19:03:54.874Z,26.82
2023-06-28T19:06:21.648Z,26.61
2023-06-28T19:08:50.016Z,26.58
2023-06-28T19:11:31.726Z,26.48
2023-06-28T19:13:58.451Z,26.43
2023-06-28T19:16:25.145Z,26.17
2023-06-28T19:18:52.137Z,26.09
2023-06-28T19:21:19.508Z,25.88
2023-06-28T19:23:47.550Z,25.60
2023-06-28T19:26:15.529Z,25.61
2023-06-28T19:28:42.673Z,25.50
2023-06-28T19:31:09.954Z,25.37
2023-06-28T19:33:36.948Z,25.13
2023-06-28T19:36:03.807Z,25.01
2023-06-28T19:38:31.845Z,25.03
2023-06-28T19:40:58.517Z,24.95
2023-06-28T19:43:25.407Z,24.83
2023-06-28T19:45:52.098Z,24.59
2023-06-28T19:48:18.931Z,24.50
2023-06-28T19:50:46.544Z,24.40
2023-06-28T19:53:13.388Z,24.39
2023-06-28T19:55:40.016Z,24.34
2023-06-28T19:58:06.761Z,24.27
2023-06-28T20:00:33.370Z,24.11
2023-06-28T20:03:00.020Z,24.03
2023-06-28T20:05:26.718Z,23.96
2023-06-28T20:07:54.402Z,23.81
2023-06-28T20:10:22.601Z,23.65
2023-06-28T20:13:19.511Z,23.47
2023-06-28T20:15:46.476Z,23.23
2023-06-28T20:18:13.504Z,22.93
2023-06-28T20:20:40.553Z,22.92
2023-06-28T20:23:09.527Z,22.96
2023-06-28T20:25:36.604Z,22.83
2023-06-28T20:28:06.825Z,22.68
2023-06-28T20:30:33.651Z,22.15
2023-06-28T20:33:00.479Z,21.94
2023-06-28T20:35:27.324Z,21.90
2023-06-28T20:37:54.039Z,21.78
2023-06-28T20:40:20.851Z,21.98
2023-06-28T20:42:47.661Z,22.07
2023-06-28T20:45:14.320Z,21.79
2023-06-28T20:47:40.973Z,21.64
2023-06-28T20:50:11.112Z,21.65
2023-06-28T20:52:37.793Z,21.73
2023-06-28T20:55:05.036Z,21.31
2023-06-28T20:57:31.992Z,21.37
2023-06-28T21:00:01.244Z,21.51
2023-06-28T21:02:28.680Z,21.36
2023-06-28T21:04:56.000Z,21.37
2023-06-28T21:07:22.791Z,21.42
2023-06-28T21:09:49.619Z,21.33
2023-06-28T21:12:16.521Z,21.17
2023-06-28T21:14:43.243Z,21.09
2023-06-28T21:17:09.885Z,21.06
2023-06-28T21:19:39.306Z,20.73
2023-06-28T21:22:06.533Z,20.78
2023-06-28T21:24:33.276Z,20.77
2023-06-28T21:27:00.195Z,20.64
2023-06-28T21:29:26.859Z,20.62
2023-06-28T21:31:53.561Z,20.59
2023-06-28T21:34:20.309Z,20.37
2023-06-28T21:36:47.010Z,20.40
2023-06-28T21:39:13.927Z,20.43
2023-06-28T21:41:40.625Z,20.46
2023-06-28T21:44:07.606Z,20.51
2023-06-28T21:46:34.317Z,20.42
2023-06-28T21:49:01.103Z,20.35
2023-06-28T21:51:27.893Z,20.33
2023-06-28T21:53:54.560Z,20.21
2023-06-28T21:56:21.764Z,20.12
2023-06-28T21:58:48.524Z,20.07
2023-06-28T22:01:15.252Z,19.84
2023-06-28T22:03:42.012Z,19.89
2023-06-28T22:06:08.695Z,19.85
2023-06-28T22:08:36.618Z,19.66
2023-06-28T22:11:04.363Z,19.54
2023-06-28T22:13:31.228Z,19.56
2023-06-28T22:15:58.064Z,19.58
2023-06-28T22:18:24.748Z,19.44
2023-06-28T22:20:51.410Z,19.27
2023-06-28T22:23:20.403Z,18.99
2023-06-28T22:25:47.426Z,19.00
2023-06-28T22:28:14.199Z,19.01
2023-06-28T22:30:41.055Z,19.14
2023-06-28T22:33:07.802Z,19.02
2023-06-28T22:35:34.630Z,19.03
2023-06-28T22:38:01.442Z,19.05
2023-06-28T22:40:28.308Z,19.07
2023-06-28T22:42:54.989Z,18.86
2023-06-28T22:45:22.330Z,18.57
2023-06-28T22:47:48.982Z,18.53
2023-06-28T22:50:15.627Z,18.55
2023-06-28T22:52:45.489Z,18.49
2023-06-28T22:55:12.709Z,18.43
2023-06-28T22:57:39.660Z,18.44
2023-06-28T23:00:10.226Z,18.47
2023-06-28T23:02:36.947Z,18.54
2023-06-28T23:05:04.110Z,18.62
2023-06-28T23:07:33.105Z,18.50
2023-06-28T23:10:02.960Z,18.23
2023-06-28T23:12:38.072Z,18.38
2023-06-28T23:15:05.320Z,18.06
2023-06-28T23:17:32.073Z,17.93
2023-06-28T23:19:59.270Z,17.75
2023-06-28T23:22:29.352Z,17.79
2023-06-28T23:24:59.088Z,17.98
2023-06-28T23:27:30.805Z,18.23
2023-06-28T23:29:58.696Z,17.84
2023-06-28T23:32:27.755Z,18.06
2023-06-28T23:34:54.599Z,18.20
2023-06-28T23:37:21.354Z,17.84
2023-06-28T23:39:49.123Z,17.82
2023-06-28T23:42:16.051Z,17.97
2023-06-28T23:44:43.845Z,17.86
2023-06-28T23:47:13.615Z,17.96
2023-06-28T23:49:40.894Z,17.84
2023-06-28T23:52:08.848Z,17.86
2023-06-28T23:54:35.472Z,17.79
2023-06-28T23:57:04.449Z,17.84
2023-06-28T23:59:31.240Z,18.02
